createdAt,value
2016-11-17T00:00:04.910Z,81.84
2016-11-17T00:01:04.927Z,81.74
2016-11-17T00:02:04.478Z,81.45
2016-11-17T00:03:04.541Z,81.45
2016-11-17T00:04:04.591Z,81.84
2016-11-17T00:05:04.636Z,81.65
2016-11-17T00:06:04.687Z,81.26
2016-11-17T00:07:04.716Z,81.16
2016-11-17T00:08:04.811Z,81.35
2016-11-17T00:09:04.813Z,81.55
2016-11-17T00:10:04.890Z,81.07
2016-11-17T00:11:04.936Z,80.58
2016-11-17T00:12:05.528Z,80.68
2016-11-17T00:13:05.021Z,81.93
2016-11-17T00:14:05.106Z,81.93
2016-11-17T00:15:05.114Z,81.74
2016-11-17T00:16:05.180Z,81.99
2016-11-17T00:17:05.284Z,81.9
2016-11-17T00:18:05.292Z,81.93
2016-11-17T00:19:05.354Z,82.03
2016-11-17T00:20:05.417Z,81.65
2016-11-17T00:21:05.964Z,81.12
2016-11-17T00:22:05.512Z,81.84
2016-11-17T00:23:05.545Z,81.41
2016-11-17T00:24:05.698Z,81.8
2016-11-17T00:25:06.186Z,81.74
2016-11-17T00:26:05.701Z,81.45
2016-11-17T00:27:05.771Z,81.35
2016-11-17T00:28:05.823Z,81.65
2016-11-17T00:29:05.948Z,80.78
2016-11-17T00:30:06.444Z,80.78
2016-11-17T00:31:05.961Z,80.68
2016-11-17T00:32:06.038Z,81.26
2016-11-17T00:33:06.067Z,81.65
2016-11-17T00:34:06.108Z,80.78
2016-11-17T00:35:06.191Z,80.87
2016-11-17T00:36:06.224Z,80.68
2016-11-17T00:37:06.252Z,80.78
2016-11-17T00:38:06.336Z,80.49
2016-11-17T00:39:06.373Z,80.3
2016-11-17T00:40:06.410Z,80.58
2016-11-17T00:41:06.492Z,80.78
2016-11-17T00:42:06.549Z,80.49
2016-11-17T00:43:07.104Z,80.78
2016-11-17T00:44:06.616Z,81.16
2016-11-17T00:45:06.695Z,80.97
2016-11-17T00:46:06.759Z,80.87
2016-11-17T00:47:06.775Z,81.35
2016-11-17T00:48:06.838Z,81.26
2016-11-17T00:49:06.897Z,81.07
2016-11-17T00:50:06.940Z,81.16
2016-11-17T00:51:06.984Z,81.6
2016-11-17T00:52:07.016Z,81.32
2016-11-17T00:53:07.115Z,81.55
2016-11-17T00:54:07.127Z,81.55
2016-11-17T00:55:07.198Z,80.78
2016-11-17T00:56:07.241Z,80.78
2016-11-17T00:57:07.286Z,81.55
2016-11-17T00:58:07.887Z,81.84
2016-11-17T00:59:07.378Z,81.16
2016-11-17T01:00:07.546Z,81.65
2016-11-17T01:01:07.512Z,81.35
2016-11-17T01:02:07.553Z,82.09
2016-11-17T01:03:08.100Z,82.09
2016-11-17T01:04:07.666Z,82.18
2016-11-17T01:05:07.799Z,81.8
2016-11-17T01:06:08.299Z,82.18
2016-11-17T01:07:07.796Z,82.51
2016-11-17T01:08:07.857Z,82.67
2016-11-17T01:09:08.080Z,83.15
2016-11-17T01:10:08.072Z,83.25
2016-11-17T01:11:08.031Z,83.73
2016-11-17T01:12:08.044Z,83.44
2016-11-17T01:13:08.127Z,83.15
2016-11-17T01:14:08.185Z,83.15
2016-11-17T01:15:08.330Z,83.25
2016-11-17T01:16:08.265Z,82.67
2016-11-17T01:17:08.369Z,82.76
2016-11-17T01:18:08.374Z,83.34
2016-11-17T01:19:08.437Z,83.73
2016-11-17T01:20:08.476Z,83.53
2016-11-17T01:21:08.549Z,83.92
2016-11-17T01:22:08.565Z,83.73
2016-11-17T01:23:08.662Z,83.73
2016-11-17T01:24:08.689Z,84.01
2016-11-17T01:25:08.747Z,83.73
2016-11-17T01:26:08.771Z,83.83
2016-11-17T01:27:08.861Z,83.73
2016-11-17T01:28:08.900Z,83.25
2016-11-17T01:29:08.948Z,83.63
2016-11-17T01:30:08.976Z,83.63
2016-11-17T01:31:09.019Z,83.25
2016-11-17T01:32:09.108Z,83.53
2016-11-17T01:33:09.122Z,83.63
2016-11-17T01:34:09.228Z,83.05
2016-11-17T01:35:09.234Z,83.34
2016-11-17T01:36:09.307Z,83.34
2016-11-17T01:37:09.328Z,83.92
2016-11-17T01:38:09.394Z,83.83
2016-11-17T01:39:09.425Z,83.44
2016-11-17T01:40:09.478Z,83.73
2016-11-17T01:41:09.561Z,84.79
2016-11-17T01:42:09.600Z,85.56
2016-11-17T01:43:09.669Z,85.61
2016-11-17T01:44:09.712Z,85.42
2016-11-17T01:45:09.768Z,85.52
2016-11-17T01:46:09.882Z,85.71
2016-11-17T01:47:09.846Z,85.81
2016-11-17T01:48:09.927Z,85.91
2016-11-17T01:49:09.958Z,85.61
2016-11-17T01:50:10.007Z,85.46
2016-11-17T01:51:10.173Z,85.17
2016-11-17T01:52:10.129Z,85.23
2016-11-17T01:53:10.162Z,85.33
2016-11-17T01:54:10.741Z,85.61
2016-11-17T01:55:10.313Z,86
2016-11-17T01:56:10.304Z,85.42
2016-11-17T01:57:10.357Z,85.91
2016-11-17T01:59:23.032Z,86
2016-11-17T01:59:56.182Z,86.29
2016-11-17T02:00:56.290Z,86.39
2016-11-17T02:01:56.402Z,85.91
2016-11-17T02:02:56.348Z,85.81
2016-11-17T02:03:56.401Z,85.38
2016-11-17T02:04:56.455Z,84.75
2016-11-17T02:05:56.524Z,86.58
2016-11-17T02:06:56.651Z,85.96
2016-11-17T02:07:56.614Z,86.44
2016-11-17T02:08:56.662Z,86.15
2016-11-17T02:09:56.767Z,86.35
2016-11-17T02:10:56.847Z,86.54
2016-11-17T02:11:56.800Z,87.12
2016-11-17T02:12:57.414Z,86.92
2016-11-17T02:13:56.905Z,87.79
2016-11-17T02:14:57.006Z,88.27
2016-11-17T02:15:57.010Z,87.6
2016-11-17T02:16:57.075Z,87.21
2016-11-17T02:17:57.113Z,87.3
2016-11-17T02:18:57.160Z,86.35
2016-11-17T02:19:57.228Z,85.19
2016-11-17T02:20:57.291Z,86.05
2016-11-17T02:21:57.362Z,87.12
2016-11-17T02:22:57.384Z,86.25
2016-11-17T02:23:57.409Z,86.54
2016-11-17T02:24:57.513Z,86.92
2016-11-17T02:25:57.518Z,86.35
2016-11-17T02:26:57.545Z,86.54
2016-11-17T02:27:57.641Z,85.96
2016-11-17T02:28:58.215Z,86.54
2016-11-17T02:29:57.720Z,86.73
2016-11-17T02:30:57.769Z,87.12
2016-11-17T02:31:57.841Z,86.05
2016-11-17T02:32:57.989Z,85.96
2016-11-17T02:33:57.933Z,85.57
2016-11-17T02:34:58.045Z,85.67
2016-11-17T02:35:58.051Z,86.35
2016-11-17T02:36:58.113Z,85.96
2016-11-17T02:37:58.249Z,86
2016-11-17T02:38:58.186Z,85.91
2016-11-17T02:39:58.209Z,85.42
2016-11-17T02:40:58.294Z,85.61
2016-11-17T02:41:58.317Z,85.42
2016-11-17T02:42:58.475Z,85.61
2016-11-17T02:43:58.423Z,84.94
2016-11-17T02:44:59.082Z,85.33
2016-11-17T02:45:58.534Z,85.23
2016-11-17T02:46:58.576Z,85.42
2016-11-17T02:47:59.155Z,85.91
2016-11-17T02:48:58.726Z,85.91
2016-11-17T02:49:58.708Z,86
2016-11-17T02:50:58.787Z,85.81
2016-11-17T02:51:58.834Z,85.86
2016-11-17T02:52:58.946Z,86
2016-11-17T02:53:58.947Z,85.91
2016-11-17T02:54:59.006Z,86
2016-11-17T02:55:59.042Z,86.19
2016-11-17T02:56:59.071Z,86.1
2016-11-17T02:57:59.155Z,86
2016-11-17T02:58:59.708Z,86.96
2016-11-17T02:59:59.257Z,86.73
2016-11-17T03:00:59.343Z,86.39
2016-11-17T03:01:59.346Z,86.54
2016-11-17T03:02:59.389Z,85.96
2016-11-17T03:03:59.607Z,85.96
2016-11-17T03:04:59.506Z,86.63
2016-11-17T03:06:00.050Z,86.44
2016-11-17T03:06:59.584Z,86.25
2016-11-17T03:07:59.651Z,86.68
2016-11-17T03:08:59.802Z,86.15
2016-11-17T03:09:59.761Z,86.54
2016-11-17T03:10:59.796Z,86.82
2016-11-17T03:11:59.848Z,87.12
2016-11-17T03:12:59.913Z,87.02
2016-11-17T03:14:00.057Z,86.82
2016-11-17T03:15:00.008Z,86.92
2016-11-17T03:16:00.085Z,87.4
2016-11-17T03:17:00.089Z,87.02
2016-11-17T03:18:00.173Z,87.79
2016-11-17T03:19:00.289Z,87.79
2016-11-17T03:20:00.277Z,87.4
2016-11-17T03:21:00.313Z,87.5
2016-11-17T03:22:00.883Z,87.7
2016-11-17T03:23:00.409Z,87.21
2016-11-17T03:24:00.476Z,86.63
2016-11-17T03:25:00.501Z,87.3
2016-11-17T03:26:00.583Z,87.02
2016-11-17T03:27:00.604Z,86.82
2016-11-17T03:28:00.648Z,87.4
2016-11-17T03:29:00.704Z,87.02
2016-11-17T03:30:00.773Z,86.92
2016-11-17T03:31:00.802Z,86.73
2016-11-17T03:32:00.933Z,86.54
2016-11-17T03:33:00.935Z,87.12
2016-11-17T03:34:00.978Z,87.12
2016-11-17T03:35:01.138Z,87.21
2016-11-17T03:36:01.094Z,87.21
2016-11-17T03:37:01.152Z,87.12
2016-11-17T03:38:01.170Z,86.92
2016-11-17T03:39:01.309Z,86.92
2016-11-17T03:40:01.356Z,86.92
2016-11-17T03:41:01.384Z,87.7
2016-11-17T03:42:01.397Z,86.82
2016-11-17T03:43:01.435Z,86.92
2016-11-17T03:44:01.485Z,87.6
2016-11-17T03:45:01.644Z,87.5
2016-11-17T03:46:01.581Z,86.73
2016-11-17T03:47:01.615Z,87.5
2016-11-17T03:48:01.707Z,88.08
2016-11-17T03:49:01.725Z,88.17
2016-11-17T03:50:01.892Z,88.27
2016-11-17T03:51:01.833Z,87.98
2016-11-17T03:52:01.907Z,88.08
2016-11-17T03:53:01.944Z,87.98
2016-11-17T03:54:02.081Z,88.56
2016-11-17T03:55:02.021Z,88.46
2016-11-17T03:56:02.211Z,88.17
2016-11-17T03:57:02.141Z,88.85
2016-11-17T03:58:02.185Z,88.56
2016-11-17T03:59:02.264Z,88.75
2016-11-17T04:00:02.318Z,88.61
2016-11-17T04:01:02.332Z,88.08
2016-11-17T04:02:02.396Z,88.37
2016-11-17T04:03:02.478Z,87.5
2016-11-17T04:04:03.013Z,87.79
2016-11-17T04:05:02.583Z,87.6
2016-11-17T04:06:02.605Z,87.88
2016-11-17T04:07:02.692Z,87.79
2016-11-17T04:08:02.691Z,87.79
2016-11-17T04:09:02.765Z,87.79
2016-11-17T04:10:02.834Z,87.4
2016-11-17T04:11:02.863Z,87.21
2016-11-17T04:12:02.913Z,87.79
2016-11-17T04:13:02.970Z,87.98
2016-11-17T04:14:03.040Z,88.56
2016-11-17T04:15:03.049Z,88.08
2016-11-17T04:16:03.197Z,88.71
2016-11-17T04:17:03.183Z,88.51
2016-11-17T04:18:03.224Z,88.42
2016-11-17T04:19:03.280Z,88.71
2016-11-17T04:20:03.317Z,89.39
2016-11-17T04:21:03.486Z,89.19
2016-11-17T04:22:03.417Z,89.09
2016-11-17T04:23:03.477Z,88.9
2016-11-17T04:24:03.522Z,89.19
2016-11-17T04:25:03.607Z,88.46
2016-11-17T04:26:03.717Z,88.75
2016-11-17T04:27:03.652Z,88.65
2016-11-17T04:28:03.737Z,89.39
2016-11-17T04:29:03.799Z,89.29
2016-11-17T04:30:03.820Z,89.43
2016-11-17T04:31:03.891Z,89.39
2016-11-17T04:32:03.934Z,89.29
2016-11-17T04:33:04.018Z,89.58
2016-11-17T04:34:04.017Z,88.85
2016-11-17T04:35:04.067Z,89.33
2016-11-17T04:36:04.132Z,89.04
2016-11-17T04:37:04.179Z,89.62
2016-11-17T04:38:04.274Z,89.43
2016-11-17T04:39:04.273Z,89.58
2016-11-17T04:40:04.344Z,89.39
2016-11-17T04:41:04.911Z,89.86
2016-11-17T04:42:04.472Z,89.72
2016-11-17T04:43:04.494Z,89.58
2016-11-17T04:44:04.540Z,89.14
2016-11-17T04:45:04.571Z,88.75
2016-11-17T04:46:04.646Z,89.33
2016-11-17T04:47:04.694Z,89.62
2016-11-17T04:48:04.751Z,88.85
2016-11-17T04:49:04.801Z,88.56
2016-11-17T04:50:04.900Z,88.71
2016-11-17T04:51:04.915Z,88.85
2016-11-17T04:52:05.030Z,89.81
2016-11-17T04:53:04.999Z,89.72
2016-11-17T04:54:05.031Z,89.81
2016-11-17T04:55:05.080Z,89.72
2016-11-17T04:56:05.217Z,89.58
2016-11-17T04:57:05.296Z,89.23
2016-11-17T04:58:05.246Z,89.43
2016-11-17T04:59:05.295Z,89.23
2016-11-17T05:00:05.388Z,89.91
2016-11-17T05:01:05.399Z,89.62
2016-11-17T05:02:05.464Z,89.91
2016-11-17T05:03:05.511Z,90.34
2016-11-17T05:04:05.581Z,90.16
2016-11-17T05:05:05.592Z,90.06
2016-11-17T05:06:05.648Z,90.16
2016-11-17T05:07:05.733Z,90.73
2016-11-17T05:08:05.735Z,90.44
2016-11-17T05:09:05.806Z,90.44
2016-11-17T05:10:05.846Z,91.41
2016-11-17T05:11:05.906Z,90.54
2016-11-17T05:12:06.003Z,90.54
2016-11-17T05:13:06.001Z,91.41
2016-11-17T05:14:06.064Z,90.73
2016-11-17T05:15:06.125Z,91.02
2016-11-17T05:16:06.167Z,91.02
2016-11-17T05:17:06.196Z,91.02
2016-11-17T05:18:06.280Z,91.02
2016-11-17T05:19:06.345Z,91.12
2016-11-17T05:20:06.425Z,91.02
2016-11-17T05:21:06.429Z,91.21
2016-11-17T05:22:06.512Z,91.12
2016-11-17T05:23:06.612Z,91.12
2016-11-17T05:24:06.560Z,91.12
2016-11-17T05:25:06.623Z,91.12
2016-11-17T05:26:06.666Z,91.21
2016-11-17T05:27:06.735Z,90.83
2016-11-17T05:28:06.885Z,90.83
2016-11-17T05:29:06.841Z,90.25
2016-11-17T05:30:07.444Z,90.73
2016-11-17T05:31:06.939Z,90.44
2016-11-17T05:32:06.973Z,90.64
2016-11-17T05:33:07.029Z,90.34
2016-11-17T05:34:07.075Z,90.25
2016-11-17T05:35:07.106Z,91.02
2016-11-17T05:36:07.188Z,91.21
2016-11-17T05:37:07.270Z,91.12
2016-11-17T05:38:07.291Z,91.31
2016-11-17T05:39:07.315Z,91.31
2016-11-17T05:40:07.432Z,90.83
2016-11-17T05:41:07.436Z,91.02
2016-11-17T05:42:07.499Z,91.41
2016-11-17T05:43:07.544Z,91.02
2016-11-17T05:44:07.597Z,91.12
2016-11-17T05:45:07.628Z,91.21
2016-11-17T05:46:07.702Z,91.55
2016-11-17T05:47:07.751Z,90.69
2016-11-17T05:48:07.805Z,90.69
2016-11-17T05:49:07.854Z,91.07
2016-11-17T05:50:07.890Z,90.69
2016-11-17T05:51:07.919Z,91.07
2016-11-17T05:52:07.985Z,91.65
2016-11-17T05:53:08.032Z,91.36
2016-11-17T05:54:08.193Z,91.17
2016-11-17T05:55:08.153Z,91.94
2016-11-17T05:56:08.226Z,91.46
2016-11-17T05:57:08.256Z,91.36
2016-11-17T05:58:08.301Z,90.97
2016-11-17T05:59:08.441Z,90.78
2016-11-17T06:00:08.443Z,91.07
2016-11-17T06:01:08.475Z,90.88
2016-11-17T06:02:08.513Z,90.3
2016-11-17T06:03:08.535Z,90.64
2016-11-17T06:04:08.706Z,90.25
2016-11-17T06:05:08.656Z,90.78
2016-11-17T06:06:08.711Z,91.07
2016-11-17T06:07:08.740Z,91.31
2016-11-17T06:08:08.816Z,90.78
2016-11-17T06:09:08.861Z,90.4
2016-11-17T06:10:08.993Z,90.4
2016-11-17T06:11:08.936Z,90.11
2016-11-17T06:12:09.002Z,90.2
2016-11-17T06:13:09.105Z,90.4
2016-11-17T06:14:09.103Z,91.07
2016-11-17T06:15:09.140Z,90.5
2016-11-17T06:16:09.233Z,90.44
2016-11-17T06:17:09.245Z,90.78
2016-11-17T06:18:09.304Z,91.36
2016-11-17T06:19:09.385Z,91.46
2016-11-17T06:20:09.420Z,91.65
2016-11-17T06:21:09.476Z,90.92
2016-11-17T06:22:09.509Z,90.97
2016-11-17T06:23:09.551Z,91.55
2016-11-17T06:24:09.600Z,90.88
2016-11-17T06:25:09.746Z,90.59
2016-11-17T06:26:09.704Z,91.21
2016-11-17T06:27:09.753Z,91.12
2016-11-17T06:28:09.831Z,91.02
2016-11-17T06:29:09.860Z,90.92
2016-11-17T06:30:10.001Z,90.97
2016-11-17T06:31:09.989Z,91.07
2016-11-17T06:32:10.036Z,91.21
2016-11-17T06:33:10.081Z,91.02
2016-11-17T06:34:10.124Z,90.44
2016-11-17T06:35:10.273Z,90.54
2016-11-17T06:36:10.233Z,91.02
2016-11-17T06:37:10.285Z,90.83
2016-11-17T06:38:10.311Z,91.02
2016-11-17T06:39:10.364Z,90.44
2016-11-17T06:40:10.460Z,90.34
2016-11-17T06:41:10.463Z,90.25
2016-11-17T06:42:10.553Z,90.16
2016-11-17T06:43:10.603Z,90.34
2016-11-17T06:44:10.606Z,89.39
2016-11-17T06:45:10.691Z,89.96
2016-11-17T06:46:10.760Z,90.06
2016-11-17T06:47:10.801Z,89.86
2016-11-17T06:48:10.827Z,89.48
2016-11-17T06:49:10.858Z,89.48
2016-11-17T06:50:10.925Z,89.58
2016-11-17T06:51:10.997Z,90.06
2016-11-17T06:52:11.042Z,89.67
2016-11-17T06:53:11.089Z,90.06
2016-11-17T06:54:11.139Z,90.54
2016-11-17T06:55:11.184Z,90.97
2016-11-17T06:56:11.352Z,90.78
2016-11-17T06:57:11.277Z,90.59
2016-11-17T06:58:11.325Z,90.59
2016-11-17T06:59:11.382Z,90.54
2016-11-17T07:00:11.430Z,91.07
2016-11-17T07:01:11.600Z,91.07
2016-11-17T07:02:11.517Z,90.97
2016-11-17T07:03:11.602Z,91.07
2016-11-17T07:04:11.651Z,91.07
2016-11-17T07:05:11.691Z,91.55
2016-11-17T07:06:11.843Z,91.46
2016-11-17T07:07:11.806Z,91.46
2016-11-17T07:08:11.831Z,91.65
2016-11-17T07:09:11.896Z,91.17
2016-11-17T07:10:11.937Z,91.36
2016-11-17T07:11:12.012Z,91.46
2016-11-17T07:12:12.035Z,91.07
2016-11-17T07:13:12.112Z,90.69
2016-11-17T07:14:12.151Z,91.02
2016-11-17T07:15:12.233Z,91.02
2016-11-17T07:16:12.242Z,90.64
2016-11-17T07:17:12.317Z,90.83
2016-11-17T07:18:12.346Z,91.12
2016-11-17T07:19:12.404Z,90.44
2016-11-17T07:20:12.459Z,90.92
2016-11-17T07:21:12.501Z,91.21
2016-11-17T07:22:12.552Z,91.02
2016-11-17T07:23:12.586Z,91.6
2016-11-17T07:24:12.639Z,91.12
2016-11-17T07:25:12.700Z,91.41
2016-11-17T07:26:12.738Z,91.27
2016-11-17T07:27:12.913Z,91.84
2016-11-17T07:28:12.870Z,91.46
2016-11-17T07:29:12.899Z,91.46
2016-11-17T07:30:12.969Z,91.65
2016-11-17T07:31:13.041Z,92.22
2016-11-17T07:32:13.163Z,92.32
2016-11-17T07:33:13.095Z,92.71
2016-11-17T07:34:13.172Z,92.61
2016-11-17T07:35:13.191Z,92.71
2016-11-17T07:36:13.248Z,92.42
2016-11-17T07:37:13.407Z,92.42
2016-11-17T07:38:13.361Z,92.71
2016-11-17T07:39:13.404Z,92.42
2016-11-17T07:40:13.464Z,91.84
2016-11-17T07:41:13.507Z,92.61
2016-11-17T07:42:13.596Z,92.61
2016-11-17T07:43:13.657Z,92.9
2016-11-17T07:44:13.671Z,92.22
2016-11-17T07:45:13.727Z,92.42
2016-11-17T07:46:13.797Z,92.71
2016-11-17T07:47:13.819Z,92.13
2016-11-17T07:48:13.865Z,92.03
2016-11-17T07:49:13.895Z,92.03
2016-11-17T07:50:13.979Z,91.94
2016-11-17T07:51:14.007Z,92.03
2016-11-17T07:52:14.076Z,92.22
2016-11-17T07:53:14.145Z,92.42
2016-11-17T07:54:14.173Z,92.71
2016-11-17T07:55:14.239Z,92.13
2016-11-17T07:56:14.303Z,92.42
2016-11-17T07:57:14.321Z,92.8
2016-11-17T07:58:14.411Z,92.61
2016-11-17T07:59:14.429Z,92.61
2016-11-17T08:00:14.470Z,92.8
2016-11-17T08:01:14.536Z,93.09
2016-11-17T08:02:14.595Z,92.8
2016-11-17T08:03:14.718Z,92.61
2016-11-17T08:04:14.684Z,92.61
2016-11-17T08:05:14.735Z,92.13
2016-11-17T08:06:14.801Z,92.22
2016-11-17T08:07:14.833Z,91.84
2016-11-17T08:08:14.978Z,91.79
2016-11-17T08:09:14.949Z,91.84
2016-11-17T08:10:15.014Z,92.08
2016-11-17T08:11:15.021Z,91.55
2016-11-17T08:12:15.088Z,91.55
2016-11-17T08:13:15.244Z,92.52
2016-11-17T08:14:15.160Z,92.22
2016-11-17T08:15:15.754Z,92.03
2016-11-17T08:16:15.982Z,91.65
2016-11-17T08:17:15.366Z,92.71
2016-11-17T08:18:15.407Z,92.32
2016-11-17T08:19:15.436Z,92.47
2016-11-17T08:20:15.505Z,92.71
2016-11-17T08:21:15.527Z,92.22
2016-11-17T08:22:15.602Z,92.03
2016-11-17T08:23:15.661Z,91.75
2016-11-17T08:24:16.231Z,91.75
2016-11-17T08:25:15.751Z,92.03
2016-11-17T08:26:15.793Z,91.84
2016-11-17T08:27:15.837Z,91.99
2016-11-17T08:28:15.868Z,92.22
2016-11-17T08:29:15.950Z,91.75
2016-11-17T08:30:15.999Z,92.56
2016-11-17T08:31:16.060Z,92.56
2016-11-17T08:32:16.090Z,92.22
2016-11-17T08:33:16.174Z,92.32
2016-11-17T08:34:16.222Z,92.42
2016-11-17T08:35:16.231Z,92.22
2016-11-17T08:36:16.312Z,92.32
2016-11-17T08:37:16.362Z,91.65
2016-11-17T08:38:16.420Z,91.94
2016-11-17T08:39:16.524Z,92.71
2016-11-17T08:40:16.525Z,93.09
2016-11-17T08:41:16.573Z,92.8
2016-11-17T08:42:16.604Z,93
2016-11-17T08:43:16.671Z,93
2016-11-17T08:44:16.701Z,93.24
2016-11-17T08:45:16.744Z,93.43
2016-11-17T08:46:16.832Z,93.04
2016-11-17T08:47:16.845Z,93.24
2016-11-17T08:48:17.423Z,93.48
2016-11-17T08:49:17.512Z,93.91
2016-11-17T08:50:17.023Z,93.19
2016-11-17T08:51:17.068Z,93.57
2016-11-17T08:52:17.084Z,93
2016-11-17T08:53:17.170Z,92.9
2016-11-17T08:54:17.343Z,93.38
2016-11-17T08:55:17.252Z,92.8
2016-11-17T08:56:17.326Z,92.52
2016-11-17T08:57:17.392Z,92.76
2016-11-17T08:58:17.418Z,92.61
2016-11-17T08:59:17.543Z,92.9
2016-11-17T09:00:17.535Z,92.71
2016-11-17T09:01:17.547Z,92.61
2016-11-17T09:02:17.621Z,92.32
2016-11-17T09:03:17.655Z,93.09
2016-11-17T09:04:17.718Z,93.33
2016-11-17T09:05:17.757Z,93.14
2016-11-17T09:06:17.815Z,92.56
2016-11-17T09:07:17.866Z,92.85
2016-11-17T09:08:17.892Z,92.18
2016-11-17T09:09:17.957Z,92.42
2016-11-17T09:10:18.008Z,92.71
2016-11-17T09:11:18.076Z,92.47
2016-11-17T09:12:18.667Z,92.56
2016-11-17T09:13:18.179Z,92.85
2016-11-17T09:14:18.245Z,92.85
2016-11-17T09:15:18.287Z,93.62
2016-11-17T09:16:18.362Z,93.33
2016-11-17T09:17:18.407Z,92.27
2016-11-17T09:18:18.425Z,92.47
2016-11-17T09:19:19.029Z,92.37
2016-11-17T09:20:18.530Z,92.85
2016-11-17T09:21:18.611Z,92.85
2016-11-17T09:22:18.659Z,93.24
2016-11-17T09:23:18.700Z,93.04
2016-11-17T09:24:19.255Z,93.04
2016-11-17T09:25:18.805Z,93.14
2016-11-17T09:26:18.851Z,93.04
2016-11-17T09:27:19.488Z,92.66
2016-11-17T09:28:18.957Z,91.69
2016-11-17T09:29:18.982Z,92.08
2016-11-17T09:30:19.148Z,92.76
2016-11-17T09:31:19.099Z,92.94
2016-11-17T09:32:19.128Z,93.43
2016-11-17T09:33:19.174Z,92.85
2016-11-17T09:34:19.242Z,92.76
2016-11-17T09:35:19.401Z,92.37
2016-11-17T09:36:19.331Z,92.37
2016-11-17T09:37:19.394Z,92.76
2016-11-17T09:38:19.468Z,92.76
2016-11-17T09:39:19.995Z,92.37
2016-11-17T09:40:20.072Z,92.32
2016-11-17T09:41:19.590Z,91.83
2016-11-17T09:42:19.632Z,92.66
2016-11-17T09:43:19.708Z,92.47
2016-11-17T09:44:19.768Z,93.04
2016-11-17T09:45:19.819Z,92.85
2016-11-17T09:46:19.869Z,92.76
2016-11-17T09:47:20.446Z,92.76
2016-11-17T09:48:19.962Z,92.08
2016-11-17T09:49:20.562Z,93.04
2016-11-17T09:50:20.069Z,93.38
2016-11-17T09:51:20.107Z,93.09
2016-11-17T09:52:20.171Z,92.47
2016-11-17T09:53:20.207Z,92.51
2016-11-17T09:54:20.293Z,92.71
2016-11-17T09:55:20.286Z,92.99
2016-11-17T09:56:20.377Z,92.8
2016-11-17T09:57:20.431Z,92.71
2016-11-17T09:58:20.516Z,92.71
2016-11-17T09:59:20.599Z,92.22
2016-11-17T10:00:20.810Z,92.9
2016-11-17T10:01:20.623Z,92.51
2016-11-17T10:02:20.704Z,92.13
2016-11-17T10:03:20.745Z,92.32
2016-11-17T10:04:20.779Z,91.26
2016-11-17T10:05:20.814Z,91.45
2016-11-17T10:06:20.987Z,91.16
2016-11-17T10:07:20.972Z,91.3
2016-11-17T10:08:20.996Z,90.63
2016-11-17T10:09:21.019Z,90.63
2016-11-17T10:10:21.276Z,89.67
2016-11-17T10:11:21.261Z,90.82
2016-11-17T10:12:21.202Z,90.63
2016-11-17T10:13:21.247Z,90.24
2016-11-17T10:14:21.289Z,90.34
2016-11-17T10:15:21.349Z,89.28
2016-11-17T10:16:22.057Z,88.7
2016-11-17T10:17:21.453Z,88.79
2016-11-17T10:18:21.519Z,88.99
2016-11-17T10:19:22.062Z,89.67
2016-11-17T10:20:21.600Z,89.37
2016-11-17T10:21:21.667Z,89.37
2016-11-17T10:22:21.699Z,89.28
2016-11-17T10:23:21.755Z,89.18
2016-11-17T10:24:21.860Z,88.79
2016-11-17T10:25:21.859Z,89.09
2016-11-17T10:26:22.438Z,89.53
2016-11-17T10:27:21.935Z,89.37
2016-11-17T10:28:22.027Z,89.67
2016-11-17T10:29:22.072Z,89.67
2016-11-17T10:30:22.625Z,89.76
2016-11-17T10:31:22.152Z,89.28
2016-11-17T10:32:22.238Z,88.79
2016-11-17T10:33:22.283Z,90.05
2016-11-17T10:34:22.320Z,90.05
2016-11-17T10:35:22.908Z,89.95
2016-11-17T10:36:22.453Z,89.47
2016-11-17T10:37:22.476Z,88.7
2016-11-17T10:38:23.103Z,88.31
2016-11-17T10:39:22.600Z,88.79
2016-11-17T10:40:22.641Z,88.79
2016-11-17T10:41:22.733Z,88.79
2016-11-17T10:42:23.266Z,87.83
2016-11-17T10:43:22.771Z,87.45
2016-11-17T10:44:23.370Z,87.45
2016-11-17T10:45:23.434Z,88.31
2016-11-17T10:46:22.985Z,88.6
2016-11-17T10:47:23.094Z,88.41
2016-11-17T10:48:23.035Z,88.6
2016-11-17T10:49:23.102Z,88.22
2016-11-17T10:50:23.683Z,88.89
2016-11-17T10:51:23.701Z,88.79
2016-11-17T10:52:23.365Z,88.02
2016-11-17T10:53:23.300Z,87.35
2016-11-17T10:54:23.334Z,87.45
2016-11-17T10:55:23.393Z,86.48
2016-11-17T10:56:23.485Z,86.68
2016-11-17T10:57:23.752Z,86.87
2016-11-17T10:58:24.090Z,86.96
2016-11-17T10:59:24.155Z,87.06
2016-11-17T11:00:23.638Z,86.68
2016-11-17T11:01:23.726Z,86.58
2016-11-17T11:02:24.292Z,86.77
2016-11-17T11:03:24.070Z,86.96
2016-11-17T11:04:24.368Z,87.16
2016-11-17T11:05:23.928Z,87.06
2016-11-17T11:06:23.961Z,87.26
2016-11-17T11:07:24.492Z,87.06
2016-11-17T11:08:24.109Z,87.06
2016-11-17T11:09:24.207Z,87.1
2016-11-17T11:10:24.722Z,85.85
2016-11-17T11:11:24.238Z,86.04
2016-11-17T11:12:24.297Z,86.52
2016-11-17T11:13:24.887Z,87.2
2016-11-17T11:14:24.926Z,85.94
2016-11-17T11:15:24.452Z,84.69
2016-11-17T11:16:24.505Z,84.5
2016-11-17T11:17:24.548Z,84.69
2016-11-17T11:18:24.571Z,84.44
2016-11-17T11:19:25.174Z,84.64
2016-11-17T11:20:24.705Z,84.89
2016-11-17T11:21:24.720Z,85.02
2016-11-17T11:22:25.043Z,85.22
2016-11-17T11:23:24.962Z,84.44
2016-11-17T11:24:24.891Z,83.39
2016-11-17T11:25:24.946Z,83.19
2016-11-17T11:26:24.998Z,83.87
2016-11-17T11:27:25.614Z,83.67
2016-11-17T11:28:25.329Z,83.96
2016-11-17T11:29:25.156Z,83.96
2016-11-17T11:30:25.223Z,84.54
2016-11-17T11:31:25.304Z,83.77
2016-11-17T11:32:25.847Z,83.96
2016-11-17T11:33:26.117Z,83.77
2016-11-17T11:34:25.412Z,84.25
2016-11-17T11:35:26.024Z,83.67
2016-11-17T11:36:25.517Z,84.64
2016-11-17T11:37:25.604Z,84.64
2016-11-17T11:38:25.613Z,85.7
2016-11-17T11:39:25.687Z,85.41
2016-11-17T11:40:25.731Z,85.6
2016-11-17T11:41:25.820Z,84.35
2016-11-17T11:42:25.854Z,84.25
2016-11-17T11:43:25.873Z,84.93
2016-11-17T11:44:26.438Z,84.44
2016-11-17T11:45:26.007Z,84.06
2016-11-17T11:46:26.266Z,84.2
2016-11-17T11:47:26.624Z,83.33
2016-11-17T11:48:26.157Z,83.04
2016-11-17T11:49:26.213Z,82.17
2016-11-17T11:50:26.273Z,82.36
2016-11-17T11:51:26.817Z,82.46
2016-11-17T11:52:26.860Z,82.56
2016-11-17T11:53:26.424Z,81.78
2016-11-17T11:54:27.086Z,82.56
2016-11-17T11:55:26.541Z,82.07
2016-11-17T11:56:26.578Z,81.63
2016-11-17T11:57:27.159Z,81.05
2016-11-17T11:58:26.684Z,81.82
2016-11-17T11:59:26.939Z,81.63
2016-11-17T12:00:27.307Z,80.86
2016-11-17T12:01:26.895Z,80.66
2016-11-17T12:02:26.922Z,79.8
2016-11-17T12:03:26.936Z,79.02
2016-11-17T12:04:27.004Z,78.92
2016-11-17T12:05:27.032Z,79.31
2016-11-17T12:06:27.859Z,79.22
2016-11-17T12:07:27.664Z,77.57
2016-11-17T12:08:27.748Z,78.06
2016-11-17T12:09:27.265Z,77.76
2016-11-17T12:10:27.860Z,78
2016-11-17T12:11:27.365Z,77.8
2016-11-17T12:12:27.982Z,77.71
2016-11-17T12:13:27.497Z,77.22
2016-11-17T12:14:27.754Z,77.36
2016-11-17T12:15:28.109Z,77.75
2016-11-17T12:16:28.194Z,76.39
2016-11-17T12:17:27.686Z,76.68
2016-11-17T12:18:28.247Z,76.68
2016-11-17T12:19:27.827Z,76.87
2016-11-17T12:20:27.859Z,76.59
2016-11-17T12:21:27.930Z,76.39
2016-11-17T12:22:27.956Z,76.1
2016-11-17T12:23:27.996Z,75.71
2016-11-17T12:24:28.045Z,75.81
2016-11-17T12:25:28.093Z,75.17
2016-11-17T12:26:28.164Z,75.37
2016-11-17T12:27:28.783Z,74.79
2016-11-17T12:28:28.300Z,75.85
2016-11-17T12:29:28.316Z,75.75
2016-11-17T12:30:28.578Z,75.95
2016-11-17T12:31:28.450Z,74.98
2016-11-17T12:32:28.465Z,74.3
2016-11-17T12:33:28.567Z,75.27
2016-11-17T12:34:28.603Z,74.24
2016-11-17T12:35:28.876Z,74.34
2016-11-17T12:36:28.704Z,73.85
2016-11-17T12:37:28.786Z,73.66
2016-11-17T12:38:28.807Z,73.5
2016-11-17T12:39:28.869Z,71.76
2016-11-17T12:40:29.061Z,71.76
2016-11-17T12:41:29.491Z,71.95
2016-11-17T12:42:29.029Z,72.05
2016-11-17T12:43:29.641Z,73.21
2016-11-17T12:44:29.159Z,73.11
2016-11-17T12:45:29.178Z,72.92
2016-11-17T12:46:29.787Z,72.83
2016-11-17T12:47:29.317Z,72.73
2016-11-17T12:48:29.874Z,71.56
2016-11-17T12:49:29.415Z,72.15
2016-11-17T12:50:29.449Z,70.79
2016-11-17T12:51:29.515Z,70.54
2016-11-17T12:52:29.610Z,70.89
2016-11-17T12:53:30.191Z,71.18
2016-11-17T12:54:29.662Z,71.89
2016-11-17T12:55:29.724Z,70.92
2016-11-17T12:56:30.330Z,70.15